sensor_id;sensor_type;location;lat;lon;timestamp;P1;durP1;ratioP1;P2;durP2;ratioP2
22121;SDS011;11227;53.046;10.512;2022-09-21T00:03:42;2.35;;;1.30;;
22121;SDS011;11227;53.046;10.512;2022-09-21T00:07:44;1.70;;;1.20;;
22121;SDS011;11227;53.046;10.512;2022-09-21T00:11:46;2.65;;;1.00;;
22121;SDS011;11227;53.046;10.512;2022-09-21T00:15:47;1.58;;;0.80;;
22121;SDS011;11227;53.046;10.512;2022-09-21T00:19:49;2.30;;;1.13;;
22121;SDS011;11227;53.046;10.512;2022-09-21T00:23:51;2.58;;;1.10;;
22121;SDS011;11227;53.046;10.512;2022-09-21T00:27:53;2.63;;;1.00;;
22121;SDS011;11227;53.046;10.512;2022-09-21T00:31:55;1.27;;;0.82;;
22121;SDS011;11227;53.046;10.512;2022-09-21T00:36:07;0.80;;;0.80;;
22121;SDS011;11227;53.046;10.512;2022-09-21T00:40:11;1.40;;;1.08;;
22121;SDS011;11227;53.046;10.512;2022-09-21T00:44:29;1.10;;;0.80;;
22121;SDS011;11227;53.046;10.512;2022-09-21T00:48:32;1.63;;;0.90;;
22121;SDS011;11227;53.046;10.512;2022-09-21T00:52:36;2.95;;;1.10;;
22121;SDS011;11227;53.046;10.512;2022-09-21T00:56:41;1.73;;;1.10;;
22121;SDS011;11227;53.046;10.512;2022-09-21T01:00:45;2.05;;;1.13;;
22121;SDS011;11227;53.046;10.512;2022-09-21T01:04:46;1.48;;;0.95;;
22121;SDS011;11227;53.046;10.512;2022-09-21T01:08:49;2.38;;;1.00;;
22121;SDS011;11227;53.046;10.512;2022-09-21T01:13:03;0.85;;;0.70;;
22121;SDS011;11227;53.046;10.512;2022-09-21T01:17:17;0.82;;;0.68;;
22121;SDS011;11227;53.046;10.512;2022-09-21T01:21:32;0.90;;;0.70;;
22121;SDS011;11227;53.046;10.512;2022-09-21T01:33:58;1.95;;;1.05;;
22121;SDS011;11227;53.046;10.512;2022-09-21T01:38:09;1.45;;;0.70;;
22121;SDS011;11227;53.046;10.512;2022-09-21T01:42:32;1.13;;;0.98;;
22121;SDS011;11227;53.046;10.512;2022-09-21T01:46:35;0.75;;;0.60;;
22121;SDS011;11227;53.046;10.512;2022-09-21T01:50:40;1.52;;;1.10;;
22121;SDS011;11227;53.046;10.512;2022-09-21T01:54:50;1.45;;;0.77;;
22121;SDS011;11227;53.046;10.512;2022-09-21T02:03:28;2.13;;;0.93;;
22121;SDS011;11227;53.046;10.512;2022-09-21T02:07:38;1.08;;;0.80;;
22121;SDS011;11227;53.046;10.512;2022-09-21T02:11:40;2.38;;;0.70;;
22121;SDS011;11227;53.046;10.512;2022-09-21T02:29:27;1.67;;;0.70;;
22121;SDS011;11227;53.046;10.512;2022-09-21T02:33:18;2.30;;;0.88;;
22121;SDS011;11227;53.046;10.512;2022-09-21T02:37:28;0.60;;;0.60;;
22121;SDS011;11227;53.046;10.512;2022-09-21T02:46:15;2.45;;;0.80;;
22121;SDS011;11227;53.046;10.512;2022-09-21T02:50:31;0.73;;;0.73;;
22121;SDS011;11227;53.046;10.512;2022-09-21T02:54:57;1.05;;;0.80;;
22121;SDS011;11227;53.046;10.512;2022-09-21T02:59:01;0.95;;;0.80;;
22121;SDS011;11227;53.046;10.512;2022-09-21T03:03:18;1.52;;;0.63;;
22121;SDS011;11227;53.046;10.512;2022-09-21T03:07:22;0.93;;;0.63;;
22121;SDS011;11227;53.046;10.512;2022-09-21T03:11:23;0.60;;;0.60;;
22121;SDS011;11227;53.046;10.512;2022-09-21T03:15:25;1.20;;;0.60;;
22121;SDS011;11227;53.046;10.512;2022-09-21T03:19:28;1.08;;;0.80;;
22121;SDS011;11227;53.046;10.512;2022-09-21T03:23:29;0.70;;;0.70;;
22121;SDS011;11227;53.046;10.512;2022-09-21T03:27:31;0.70;;;0.70;;
22121;SDS011;11227;53.046;10.512;2022-09-21T03:31:34;1.45;;;0.60;;
22121;SDS011;11227;53.046;10.512;2022-09-21T03:35:35;1.90;;;0.82;;
22121;SDS011;11227;53.046;10.512;2022-09-21T03:39:38;1.15;;;0.60;;
22121;SDS011;11227;53.046;10.512;2022-09-21T03:43:39;0.93;;;0.70;;
22121;SDS011;11227;53.046;10.512;2022-09-21T03:47:41;2.00;;;0.90;;
22121;SDS011;11227;53.046;10.512;2022-09-21T03:51:43;0.70;;;0.70;;
22121;SDS011;11227;53.046;10.512;2022-09-21T03:55:45;0.75;;;0.68;;
22121;SDS011;11227;53.046;10.512;2022-09-21T03:59:46;0.65;;;0.45;;
22121;SDS011;11227;53.046;10.512;2022-09-21T04:03:49;0.77;;;0.77;;
22121;SDS011;11227;53.046;10.512;2022-09-21T04:07:50;1.10;;;0.70;;
22121;SDS011;11227;53.046;10.512;2022-09-21T04:11:52;0.52;;;0.52;;
22121;SDS011;11227;53.046;10.512;2022-09-21T04:20:23;1.23;;;0.82;;
22121;SDS011;11227;53.046;10.512;2022-09-21T04:24:25;0.57;;;0.55;;
22121;SDS011;11227;53.046;10.512;2022-09-21T04:28:27;0.77;;;0.70;;
22121;SDS011;11227;53.046;10.512;2022-09-21T04:32:29;0.50;;;0.50;;
22121;SDS011;11227;53.046;10.512;2022-09-21T04:36:31;1.17;;;0.70;;
22121;SDS011;11227;53.046;10.512;2022-09-21T04:40:36;0.45;;;0.45;;
22121;SDS011;11227;53.046;10.512;2022-09-21T04:44:39;0.52;;;0.52;;
22121;SDS011;11227;53.046;10.512;2022-09-21T04:48:40;1.48;;;0.70;;
22121;SDS011;11227;53.046;10.512;2022-09-21T04:52:42;0.60;;;0.50;;
22121;SDS011;11227;53.046;10.512;2022-09-21T04:56:44;0.85;;;0.70;;
22121;SDS011;11227;53.046;10.512;2022-09-21T05:00:47;0.85;;;0.70;;
22121;SDS011;11227;53.046;10.512;2022-09-21T05:04:53;0.63;;;0.63;;
22121;SDS011;11227;53.046;10.512;2022-09-21T05:08:55;0.50;;;0.40;;
22121;SDS011;11227;53.046;10.512;2022-09-21T05:13:15;1.13;;;0.60;;
22121;SDS011;11227;53.046;10.512;2022-09-21T05:17:20;0.60;;;0.50;;
22121;SDS011;11227;53.046;10.512;2022-09-21T05:21:23;3.80;;;0.80;;
22121;SDS011;11227;53.046;10.512;2022-09-21T05:25:24;0.90;;;0.60;;
22121;SDS011;11227;53.046;10.512;2022-09-21T05:29:26;1.50;;;0.85;;
22121;SDS011;11227;53.046;10.512;2022-09-21T05:33:28;4.53;;;1.10;;
22121;SDS011;11227;53.046;10.512;2022-09-21T05:37:36;4.05;;;1.00;;
22121;SDS011;11227;53.046;10.512;2022-09-21T05:41:59;1.88;;;1.02;;
22121;SDS011;11227;53.046;10.512;2022-09-21T05:46:02;3.25;;;1.45;;
22121;SDS011;11227;53.046;10.512;2022-09-21T05:54:44;3.05;;;1.33;;
22121;SDS011;11227;53.046;10.512;2022-09-21T06:03:27;4.00;;;1.63;;
22121;SDS011;11227;53.046;10.512;2022-09-21T06:07:30;4.03;;;1.23;;
22121;SDS011;11227;53.046;10.512;2022-09-21T06:11:31;4.10;;;2.08;;
22121;SDS011;11227;53.046;10.512;2022-09-21T06:15:33;7.90;;;1.98;;
22121;SDS011;11227;53.046;10.512;2022-09-21T06:19:38;8.43;;;3.17;;
22121;SDS011;11227;53.046;10.512;2022-09-21T06:23:40;4.90;;;2.35;;
22121;SDS011;11227;53.046;10.512;2022-09-21T06:27:41;15.45;;;4.10;;
22121;SDS011;11227;53.046;10.512;2022-09-21T06:31:43;16.38;;;5.00;;
22121;SDS011;11227;53.046;10.512;2022-09-21T06:35:49;20.20;;;4.70;;
22121;SDS011;11227;53.046;10.512;2022-09-21T06:39:55;14.00;;;4.30;;
22121;SDS011;11227;53.046;10.512;2022-09-21T06:43:57;21.25;;;5.15;;
22121;SDS011;11227;53.046;10.512;2022-09-21T06:47:58;15.55;;;4.30;;
22121;SDS011;11227;53.046;10.512;2022-09-21T06:52:00;12.80;;;5.22;;
22121;SDS011;11227;53.046;10.512;2022-09-21T06:56:09;16.20;;;4.40;;
22121;SDS011;11227;53.046;10.512;2022-09-21T07:00:11;16.58;;;4.30;;
22121;SDS011;11227;53.046;10.512;2022-09-21T07:04:14;12.23;;;3.70;;
22121;SDS011;11227;53.046;10.512;2022-09-21T07:08:16;12.57;;;4.05;;
22121;SDS011;11227;53.046;10.512;2022-09-21T07:12:37;10.13;;;4.68;;
22121;SDS011;11227;53.046;10.512;2022-09-21T07:16:39;13.98;;;3.85;;
22121;SDS011;11227;53.046;10.512;2022-09-21T07:20:41;10.30;;;4.00;;
22121;SDS011;11227;53.046;10.512;2022-09-21T07:24:42;11.45;;;4.85;;
22121;SDS011;11227;53.046;10.512;2022-09-21T07:28:44;12.25;;;3.70;;
22121;SDS011;11227;53.046;10.512;2022-09-21T07:32:45;9.70;;;3.80;;
22121;SDS011;11227;53.046;10.512;2022-09-21T07:36:47;9.98;;;4.22;;
22121;SDS011;11227;53.046;10.512;2022-09-21T07:40:49;10.45;;;3.83;;
22121;SDS011;11227;53.046;10.512;2022-09-21T07:44:51;10.25;;;3.60;;
22121;SDS011;11227;53.046;10.512;2022-09-21T07:49:04;9.43;;;4.05;;
22121;SDS011;11227;53.046;10.512;2022-09-21T07:53:06;8.98;;;4.32;;
22121;SDS011;11227;53.046;10.512;2022-09-21T07:57:08;11.23;;;3.88;;
22121;SDS011;11227;53.046;10.512;2022-09-21T08:01:28;13.48;;;4.05;;
22121;SDS011;11227;53.046;10.512;2022-09-21T08:05:31;7.93;;;3.15;;
22121;SDS011;11227;53.046;10.512;2022-09-21T08:09:33;7.80;;;3.35;;
22121;SDS011;11227;53.046;10.512;2022-09-21T08:13:35;7.75;;;3.40;;
22121;SDS011;11227;53.046;10.512;2022-09-21T08:17:37;13.38;;;3.55;;
22121;SDS011;11227;53.046;10.512;2022-09-21T08:25:50;6.32;;;3.75;;
22121;SDS011;11227;53.046;10.512;2022-09-21T08:29:52;8.18;;;3.70;;
22121;SDS011;11227;53.046;10.512;2022-09-21T08:33:53;9.77;;;3.13;;
22121;SDS011;11227;53.046;10.512;2022-09-21T08:37:57;11.23;;;3.67;;
22121;SDS011;11227;53.046;10.512;2022-09-21T08:46:30;8.18;;;3.42;;
22121;SDS011;11227;53.046;10.512;2022-09-21T08:50:45;6.97;;;3.00;;
22121;SDS011;11227;53.046;10.512;2022-09-21T08:54:57;7.30;;;2.72;;
22121;SDS011;11227;53.046;10.512;2022-09-21T08:59:19;11.93;;;3.78;;
22121;SDS011;11227;53.046;10.512;2022-09-21T09:03:28;6.72;;;2.78;;
22121;SDS011;11227;53.046;10.512;2022-09-21T09:16:45;4.70;;;2.63;;
22121;SDS011;11227;53.046;10.512;2022-09-21T09:21:05;6.80;;;3.40;;
22121;SDS011;11227;53.046;10.512;2022-09-21T09:25:20;4.60;;;2.70;;
22121;SDS011;11227;53.046;10.512;2022-09-21T09:29:28;10.37;;;3.27;;
22121;SDS011;11227;53.046;10.512;2022-09-21T09:33:45;7.35;;;3.33;;
22121;SDS011;11227;53.046;10.512;2022-09-21T09:38:24;5.70;;;2.80;;
22121;SDS011;11227;53.046;10.512;2022-09-21T09:42:32;8.10;;;2.75;;
22121;SDS011;11227;53.046;10.512;2022-09-21T09:51:28;5.57;;;2.88;;
22121;SDS011;11227;53.046;10.512;2022-09-21T09:55:35;6.68;;;2.63;;
22121;SDS011;11227;53.046;10.512;2022-09-21T09:59:49;7.60;;;2.97;;
22121;SDS011;11227;53.046;10.512;2022-09-21T10:08:40;5.05;;;2.60;;
22121;SDS011;11227;53.046;10.512;2022-09-21T10:12:45;6.90;;;2.67;;
22121;SDS011;11227;53.046;10.512;2022-09-21T10:16:48;4.25;;;2.55;;
22121;SDS011;11227;53.046;10.512;2022-09-21T10:25:15;5.45;;;2.88;;
22121;SDS011;11227;53.046;10.512;2022-09-21T10:33:23;4.72;;;2.40;;
22121;SDS011;11227;53.046;10.512;2022-09-21T10:37:29;5.03;;;2.35;;
22121;SDS011;11227;53.046;10.512;2022-09-21T10:41:35;5.40;;;2.53;;
22121;SDS011;11227;53.046;10.512;2022-09-21T10:45:38;4.75;;;2.40;;
22121;SDS011;11227;53.046;10.512;2022-09-21T10:49:54;4.10;;;2.27;;
22121;SDS011;11227;53.046;10.512;2022-09-21T10:53:57;5.97;;;3.42;;
22121;SDS011;11227;53.046;10.512;2022-09-21T10:57:59;5.43;;;2.40;;
22121;SDS011;11227;53.046;10.512;2022-09-21T11:02:01;4.15;;;2.15;;
22121;SDS011;11227;53.046;10.512;2022-09-21T11:06:26;5.68;;;2.50;;
22121;SDS011;11227;53.046;10.512;2022-09-21T11:15:11;4.72;;;2.30;;
22121;SDS011;11227;53.046;10.512;2022-09-21T11:19:38;7.28;;;2.50;;
22121;SDS011;11227;53.046;10.512;2022-09-21T11:24:14;5.93;;;2.28;;
22121;SDS011;11227;53.046;10.512;2022-09-21T11:28:53;3.67;;;2.13;;
22121;SDS011;11227;53.046;10.512;2022-09-21T11:41:54;5.10;;;2.17;;
22121;SDS011;11227;53.046;10.512;2022-09-21T11:50:26;4.55;;;2.00;;
22121;SDS011;11227;53.046;10.512;2022-09-21T11:59:42;6.07;;;2.33;;
22121;SDS011;11227;53.046;10.512;2022-09-21T12:03:57;4.20;;;1.80;;
22121;SDS011;11227;53.046;10.512;2022-09-21T12:12:40;5.95;;;1.65;;
22121;SDS011;11227;53.046;10.512;2022-09-21T12:17:03;4.03;;;2.45;;
22121;SDS011;11227;53.046;10.512;2022-09-21T12:21:25;4.55;;;1.77;;
22121;SDS011;11227;53.046;10.512;2022-09-21T12:25:31;3.33;;;1.77;;
22121;SDS011;11227;53.046;10.512;2022-09-21T12:29:38;3.42;;;1.77;;
22121;SDS011;11227;53.046;10.512;2022-09-21T12:33:49;5.10;;;1.92;;
22121;SDS011;11227;53.046;10.512;2022-09-21T12:37:58;3.55;;;1.63;;
22121;SDS011;11227;53.046;10.512;2022-09-21T12:42:23;5.55;;;1.60;;
22121;SDS011;11227;53.046;10.512;2022-09-21T12:46:54;3.05;;;1.60;;
22121;SDS011;11227;53.046;10.512;2022-09-21T12:59:48;3.95;;;1.83;;
22121;SDS011;11227;53.046;10.512;2022-09-21T13:04:30;4.57;;;1.80;;
22121;SDS011;11227;53.046;10.512;2022-09-21T13:08:53;8.05;;;1.80;;
22121;SDS011;11227;53.046;10.512;2022-09-21T13:12:57;2.03;;;1.33;;
22121;SDS011;11227;53.046;10.512;2022-09-21T13:17:03;3.38;;;1.52;;
22121;SDS011;11227;53.046;10.512;2022-09-21T13:21:18;2.83;;;1.45;;
22121;SDS011;11227;53.046;10.512;2022-09-21T13:25:24;3.15;;;1.70;;
22121;SDS011;11227;53.046;10.512;2022-09-21T13:29:30;2.15;;;1.33;;
22121;SDS011;11227;53.046;10.512;2022-09-21T13:33:37;4.90;;;1.60;;
22121;SDS011;11227;53.046;10.512;2022-09-21T13:37:39;3.47;;;1.23;;
22121;SDS011;11227;53.046;10.512;2022-09-21T13:41:41;2.55;;;1.48;;
22121;SDS011;11227;53.046;10.512;2022-09-21T13:46:03;2.60;;;1.30;;
22121;SDS011;11227;53.046;10.512;2022-09-21T13:50:15;2.78;;;1.63;;
22121;SDS011;11227;53.046;10.512;2022-09-21T13:54:30;3.33;;;1.48;;
22121;SDS011;11227;53.046;10.512;2022-09-21T13:58:53;2.88;;;1.23;;
22121;SDS011;11227;53.046;10.512;2022-09-21T14:02:58;3.22;;;1.40;;
22121;SDS011;11227;53.046;10.512;2022-09-21T14:07:05;2.50;;;1.20;;
22121;SDS011;11227;53.046;10.512;2022-09-21T14:11:30;2.80;;;1.40;;
22121;SDS011;11227;53.046;10.512;2022-09-21T14:15:37;1.55;;;0.98;;
22121;SDS011;11227;53.046;10.512;2022-09-21T14:24:07;2.47;;;1.65;;
22121;SDS011;11227;53.046;10.512;2022-09-21T14:28:09;5.97;;;1.50;;
22121;SDS011;11227;53.046;10.512;2022-09-21T14:36:23;2.67;;;1.33;;
22121;SDS011;11227;53.046;10.512;2022-09-21T14:41:02;2.72;;;1.48;;
22121;SDS011;11227;53.046;10.512;2022-09-21T14:45:09;2.10;;;1.00;;
22121;SDS011;11227;53.046;10.512;2022-09-21T14:53:56;1.35;;;1.15;;
22121;SDS011;11227;53.046;10.512;2022-09-21T14:58:15;1.98;;;1.10;;
22121;SDS011;11227;53.046;10.512;2022-09-21T15:02:45;2.63;;;1.10;;
22121;SDS011;11227;53.046;10.512;2022-09-21T15:11:50;1.80;;;1.00;;
22121;SDS011;11227;53.046;10.512;2022-09-21T15:15:59;4.93;;;1.30;;
22121;SDS011;11227;53.046;10.512;2022-09-21T15:20:14;2.00;;;1.08;;
22121;SDS011;11227;53.046;10.512;2022-09-21T15:24:19;2.17;;;1.10;;
22121;SDS011;11227;53.046;10.512;2022-09-21T15:28:25;3.60;;;1.05;;
22121;SDS011;11227;53.046;10.512;2022-09-21T15:32:53;4.50;;;1.20;;
22121;SDS011;11227;53.046;10.512;2022-09-21T15:37:15;2.13;;;1.00;;
22121;SDS011;11227;53.046;10.512;2022-09-21T15:49:54;2.67;;;0.90;;
22121;SDS011;11227;53.046;10.512;2022-09-21T15:54:03;1.00;;;0.68;;
22121;SDS011;11227;53.046;10.512;2022-09-21T15:58:22;2.78;;;1.13;;
22121;SDS011;11227;53.046;10.512;2022-09-21T16:02:50;1.48;;;0.88;;
22121;SDS011;11227;53.046;10.512;2022-09-21T16:07:05;1.60;;;0.98;;
22121;SDS011;11227;53.046;10.512;2022-09-21T16:15:29;2.28;;;1.02;;
22121;SDS011;11227;53.046;10.512;2022-09-21T16:19:38;3.90;;;1.23;;
22121;SDS011;11227;53.046;10.512;2022-09-21T16:23:51;3.40;;;0.80;;
22121;SDS011;11227;53.046;10.512;2022-09-21T16:27:57;7.95;;;1.35;;
22121;SDS011;11227;53.046;10.512;2022-09-21T16:36:33;4.43;;;1.10;;
22121;SDS011;11227;53.046;10.512;2022-09-21T16:40:37;2.87;;;0.80;;
22121;SDS011;11227;53.046;10.512;2022-09-21T16:44:39;2.38;;;1.15;;
22121;SDS011;11227;53.046;10.512;2022-09-21T16:48:44;3.40;;;0.80;;
22121;SDS011;11227;53.046;10.512;2022-09-21T16:52:46;2.92;;;0.88;;
22121;SDS011;11227;53.046;10.512;2022-09-21T16:56:54;2.10;;;1.10;;
22121;SDS011;11227;53.046;10.512;2022-09-21T17:00:57;1.70;;;1.07;;
22121;SDS011;11227;53.046;10.512;2022-09-21T17:09:40;0.85;;;0.70;;
22121;SDS011;11227;53.046;10.512;2022-09-21T17:13:45;2.85;;;1.10;;
22121;SDS011;11227;53.046;10.512;2022-09-21T17:17:50;3.30;;;0.80;;
22121;SDS011;11227;53.046;10.512;2022-09-21T17:21:51;2.28;;;0.88;;
22121;SDS011;11227;53.046;10.512;2022-09-21T17:25:53;2.33;;;1.13;;
22121;SDS011;11227;53.046;10.512;2022-09-21T17:29:55;3.05;;;0.90;;
22121;SDS011;11227;53.046;10.512;2022-09-21T17:33:57;2.08;;;0.95;;
22121;SDS011;11227;53.046;10.512;2022-09-21T17:38:08;0.95;;;0.52;;
22121;SDS011;11227;53.046;10.512;2022-09-21T17:42:18;1.30;;;0.80;;
22121;SDS011;11227;53.046;10.512;2022-09-21T17:46:25;3.25;;;0.90;;
22121;SDS011;11227;53.046;10.512;2022-09-21T17:50:38;3.95;;;1.33;;
22121;SDS011;11227;53.046;10.512;2022-09-21T17:54:40;1.17;;;0.90;;
22121;SDS011;11227;53.046;10.512;2022-09-21T17:58:49;2.15;;;0.80;;
22121;SDS011;11227;53.046;10.512;2022-09-21T18:02:57;3.08;;;0.75;;
22121;SDS011;11227;53.046;10.512;2022-09-21T18:06:59;2.47;;;0.82;;
22121;SDS011;11227;53.046;10.512;2022-09-21T18:15:31;1.33;;;0.80;;
22121;SDS011;11227;53.046;10.512;2022-09-21T18:28:11;3.05;;;1.25;;
22121;SDS011;11227;53.046;10.512;2022-09-21T18:36:41;1.17;;;0.73;;
22121;SDS011;11227;53.046;10.512;2022-09-21T18:40:54;1.42;;;0.68;;
22121;SDS011;11227;53.046;10.512;2022-09-21T18:49:34;1.15;;;0.65;;
22121;SDS011;11227;53.046;10.512;2022-09-21T18:53:43;0.95;;;0.85;;
22121;SDS011;11227;53.046;10.512;2022-09-21T18:57:47;2.17;;;0.70;;
22121;SDS011;11227;53.046;10.512;2022-09-21T19:01:50;3.03;;;0.70;;
22121;SDS011;11227;53.046;10.512;2022-09-21T19:06:01;0.57;;;0.50;;
22121;SDS011;11227;53.046;10.512;2022-09-21T19:10:28;1.20;;;0.50;;
22121;SDS011;11227;53.046;10.512;2022-09-21T19:27:25;3.33;;;0.95;;
22121;SDS011;11227;53.046;10.512;2022-09-21T19:31:34;0.88;;;0.50;;
22121;SDS011;11227;53.046;10.512;2022-09-21T19:35:36;1.75;;;0.43;;
22121;SDS011;11227;53.046;10.512;2022-09-21T19:39:39;0.65;;;0.60;;
22121;SDS011;11227;53.046;10.512;2022-09-21T19:43:43;0.68;;;0.55;;
22121;SDS011;11227;53.046;10.512;2022-09-21T19:47:56;0.65;;;0.47;;
22121;SDS011;11227;53.046;10.512;2022-09-21T19:52:03;0.40;;;0.40;;
22121;SDS011;11227;53.046;10.512;2022-09-21T19:56:09;1.20;;;0.52;;
22121;SDS011;11227;53.046;10.512;2022-09-21T20:00:42;0.40;;;0.40;;
22121;SDS011;11227;53.046;10.512;2022-09-21T20:04:52;0.57;;;0.50;;
22121;SDS011;11227;53.046;10.512;2022-09-21T20:09:07;0.90;;;0.80;;
22121;SDS011;11227;53.046;10.512;2022-09-21T20:13:23;2.88;;;0.80;;
22121;SDS011;11227;53.046;10.512;2022-09-21T20:17:40;4.55;;;1.05;;
22121;SDS011;11227;53.046;10.512;2022-09-21T20:21:45;1.55;;;0.73;;
22121;SDS011;11227;53.046;10.512;2022-09-21T20:25:52;1.02;;;0.88;;
22121;SDS011;11227;53.046;10.512;2022-09-21T20:29:57;1.85;;;0.85;;
22121;SDS011;11227;53.046;10.512;2022-09-21T20:33:58;4.85;;;1.23;;
22121;SDS011;11227;53.046;10.512;2022-09-21T20:38:00;1.42;;;0.88;;
22121;SDS011;11227;53.046;10.512;2022-09-21T20:42:03;2.58;;;0.98;;
22121;SDS011;11227;53.046;10.512;2022-09-21T20:46:05;2.10;;;0.82;;
22121;SDS011;11227;53.046;10.512;2022-09-21T20:50:09;1.58;;;1.00;;
22121;SDS011;11227;53.046;10.512;2022-09-21T20:54:13;2.13;;;0.90;;
22121;SDS011;11227;53.046;10.512;2022-09-21T20:58:14;3.15;;;1.00;;
22121;SDS011;11227;53.046;10.512;2022-09-21T21:02:16;1.35;;;0.77;;
22121;SDS011;11227;53.046;10.512;2022-09-21T21:06:18;1.08;;;0.80;;
22121;SDS011;11227;53.046;10.512;2022-09-21T21:10:20;1.92;;;0.85;;
22121;SDS011;11227;53.046;10.512;2022-09-21T21:14:21;3.17;;;0.90;;
22121;SDS011;11227;53.046;10.512;2022-09-21T21:18:23;2.15;;;0.90;;
22121;SDS011;11227;53.046;10.512;2022-09-21T21:22:25;1.48;;;0.80;;
22121;SDS011;11227;53.046;10.512;2022-09-21T21:26:27;0.70;;;0.60;;
22121;SDS011;11227;53.046;10.512;2022-09-21T21:30:52;2.38;;;1.00;;
22121;SDS011;11227;53.046;10.512;2022-09-21T21:34:54;2.00;;;0.90;;
22121;SDS011;11227;53.046;10.512;2022-09-21T21:38:56;2.20;;;0.93;;
22121;SDS011;11227;53.046;10.512;2022-09-21T21:42:58;2.55;;;1.33;;
22121;SDS011;11227;53.046;10.512;2022-09-21T21:46:59;2.92;;;0.90;;
22121;SDS011;11227;53.046;10.512;2022-09-21T21:51:21;2.30;;;1.10;;
22121;SDS011;11227;53.046;10.512;2022-09-21T21:55:23;0.75;;;0.70;;
22121;SDS011;11227;53.046;10.512;2022-09-21T21:59:24;1.48;;;0.88;;
22121;SDS011;11227;53.046;10.512;2022-09-21T22:03:26;0.60;;;0.60;;
22121;SDS011;11227;53.046;10.512;2022-09-21T22:07:28;0.85;;;0.80;;
22121;SDS011;11227;53.046;10.512;2022-09-21T22:11:29;0.98;;;0.80;;
22121;SDS011;11227;53.046;10.512;2022-09-21T22:15:32;1.58;;;1.00;;
22121;SDS011;11227;53.046;10.512;2022-09-21T22:19:34;0.85;;;0.60;;
22121;SDS011;11227;53.046;10.512;2022-09-21T22:23:36;1.88;;;1.08;;
22121;SDS011;11227;53.046;10.512;2022-09-21T22:27:38;1.27;;;0.63;;
22121;SDS011;11227;53.046;10.512;2022-09-21T22:31:40;1.67;;;0.95;;
22121;SDS011;11227;53.046;10.512;2022-09-21T22:35:44;0.85;;;0.85;;
22121;SDS011;11227;53.046;10.512;2022-09-21T22:39:45;1.80;;;1.02;;
22121;SDS011;11227;53.046;10.512;2022-09-21T22:43:48;1.50;;;0.90;;
22121;SDS011;11227;53.046;10.512;2022-09-21T22:47:51;1.98;;;1.05;;
22121;SDS011;11227;53.046;10.512;2022-09-21T22:51:53;0.60;;;0.60;;
22121;SDS011;11227;53.046;10.512;2022-09-21T23:00:08;1.05;;;0.90;;
22121;SDS011;11227;53.046;10.512;2022-09-21T23:04:10;3.28;;;1.02;;
22121;SDS011;11227;53.046;10.512;2022-09-21T23:08:13;0.90;;;0.90;;
22121;SDS011;11227;53.046;10.512;2022-09-21T23:12:14;1.42;;;1.02;;
22121;SDS011;11227;53.046;10.512;2022-09-21T23:16:16;1.13;;;0.80;;
22121;SDS011;11227;53.046;10.512;2022-09-21T23:20:19;1.25;;;0.70;;
22121;SDS011;11227;53.046;10.512;2022-09-21T23:24:20;1.15;;;0.75;;
22121;SDS011;11227;53.046;10.512;2022-09-21T23:28:22;1.73;;;0.93;;
22121;SDS011;11227;53.046;10.512;2022-09-21T23:32:24;2.40;;;0.90;;
22121;SDS011;11227;53.046;10.512;2022-09-21T23:36:27;0.75;;;0.70;;
22121;SDS011;11227;53.046;10.512;2022-09-21T23:40:29;1.00;;;0.70;;
22121;SDS011;11227;53.046;10.512;2022-09-21T23:44:31;1.02;;;0.75;;
22121;SDS011;11227;53.046;10.512;2022-09-21T23:48:33;1.15;;;0.90;;
22121;SDS011;11227;53.046;10.512;2022-09-21T23:52:35;1.60;;;0.70;;
22121;SDS011;11227;53.046;10.512;2022-09-21T23:56:38;1.50;;;1.10;;
